sensor_id;sensor_type;location;lat;lon;timestamp;P1;durP1;ratioP1;P2;durP2;ratioP2
79611;SDS011;69094;48.154;11.536;2023-08-20T00:00:23;13.07;;;4.22;;
79611;SDS011;69094;48.154;11.536;2023-08-20T00:02:49;11.98;;;4.30;;
79611;SDS011;69094;48.154;11.536;2023-08-20T00:05:19;7.60;;;4.20;;
79611;SDS011;69094;48.154;11.536;2023-08-20T00:07:45;9.63;;;4.50;;
79611;SDS011;69094;48.154;11.536;2023-08-20T00:10:11;7.13;;;4.32;;
79611;SDS011;69094;48.154;11.536;2023-08-20T00:12:36;10.60;;;3.90;;
79611;SDS011;69094;48.154;11.536;2023-08-20T00:15:02;7.05;;;4.90;;
79611;SDS011;69094;48.154;11.536;2023-08-20T00:17:32;8.63;;;4.45;;
79611;SDS011;69094;48.154;11.536;2023-08-20T00:20:00;8.45;;;4.35;;
79611;SDS011;69094;48.154;11.536;2023-08-20T00:22:25;13.30;;;5.00;;
79611;SDS011;69094;48.154;11.536;2023-08-20T00:24:54;7.35;;;4.55;;
79611;SDS011;69094;48.154;11.536;2023-08-20T00:27:20;9.05;;;4.93;;
79611;SDS011;69094;48.154;11.536;2023-08-20T00:29:46;8.20;;;3.92;;
79611;SDS011;69094;48.154;11.536;2023-08-20T00:32:11;6.27;;;3.93;;
79611;SDS011;69094;48.154;11.536;2023-08-20T00:34:37;11.07;;;5.38;;
79611;SDS011;69094;48.154;11.536;2023-08-20T00:37:02;8.48;;;4.18;;
79611;SDS011;69094;48.154;11.536;2023-08-20T00:39:31;6.70;;;4.70;;
79611;SDS011;69094;48.154;11.536;2023-08-20T00:41:57;8.55;;;4.20;;
79611;SDS011;69094;48.154;11.536;2023-08-20T00:44:23;9.73;;;5.13;;
79611;SDS011;69094;48.154;11.536;2023-08-20T00:46:48;9.98;;;5.38;;
79611;SDS011;69094;48.154;11.536;2023-08-20T00:49:14;9.50;;;4.47;;
79611;SDS011;69094;48.154;11.536;2023-08-20T00:51:40;10.23;;;4.72;;
79611;SDS011;69094;48.154;11.536;2023-08-20T00:54:05;7.13;;;4.47;;
79611;SDS011;69094;48.154;11.536;2023-08-20T00:56:31;6.80;;;4.60;;
79611;SDS011;69094;48.154;11.536;2023-08-20T00:58:57;6.60;;;4.50;;
79611;SDS011;69094;48.154;11.536;2023-08-20T01:01:23;8.38;;;4.65;;
79611;SDS011;69094;48.154;11.536;2023-08-20T01:03:48;8.73;;;4.43;;
79611;SDS011;69094;48.154;11.536;2023-08-20T01:08:57;8.32;;;4.22;;
79611;SDS011;69094;48.154;11.536;2023-08-20T01:11:33;8.38;;;4.80;;
79611;SDS011;69094;48.154;11.536;2023-08-20T01:14:14;8.00;;;4.50;;
79611;SDS011;69094;48.154;11.536;2023-08-20T01:16:41;8.13;;;4.90;;
79611;SDS011;69094;48.154;11.536;2023-08-20T01:19:06;8.75;;;4.43;;
79611;SDS011;69094;48.154;11.536;2023-08-20T01:27:08;8.50;;;4.63;;
79611;SDS011;69094;48.154;11.536;2023-08-20T01:29:43;8.50;;;4.95;;
79611;SDS011;69094;48.154;11.536;2023-08-20T01:32:09;11.35;;;5.32;;
79611;SDS011;69094;48.154;11.536;2023-08-20T01:34:37;7.85;;;4.80;;
79611;SDS011;69094;48.154;11.536;2023-08-20T01:37:02;7.93;;;4.85;;
79611;SDS011;69094;48.154;11.536;2023-08-20T01:39:27;7.25;;;4.57;;
79611;SDS011;69094;48.154;11.536;2023-08-20T01:41:53;7.57;;;4.93;;
79611;SDS011;69094;48.154;11.536;2023-08-20T01:44:18;6.80;;;5.00;;
79611;SDS011;69094;48.154;11.536;2023-08-20T01:46:44;8.00;;;4.87;;
79611;SDS011;69094;48.154;11.536;2023-08-20T01:49:09;8.77;;;4.87;;
79611;SDS011;69094;48.154;11.536;2023-08-20T01:51:34;9.82;;;4.85;;
79611;SDS011;69094;48.154;11.536;2023-08-20T01:54:01;8.32;;;4.60;;
79611;SDS011;69094;48.154;11.536;2023-08-20T01:56:27;9.98;;;5.15;;
79611;SDS011;69094;48.154;11.536;2023-08-20T01:58:52;7.07;;;4.95;;
79611;SDS011;69094;48.154;11.536;2023-08-20T02:01:18;10.30;;;4.88;;
79611;SDS011;69094;48.154;11.536;2023-08-20T02:03:43;8.23;;;4.20;;
79611;SDS011;69094;48.154;11.536;2023-08-20T02:06:08;10.85;;;5.80;;
79611;SDS011;69094;48.154;11.536;2023-08-20T02:08:34;10.83;;;4.63;;
79611;SDS011;69094;48.154;11.536;2023-08-20T02:11:03;8.00;;;4.30;;
79611;SDS011;69094;48.154;11.536;2023-08-20T02:13:30;9.57;;;5.18;;
79611;SDS011;69094;48.154;11.536;2023-08-20T02:15:59;8.73;;;4.30;;
79611;SDS011;69094;48.154;11.536;2023-08-20T02:18:28;7.85;;;4.78;;
79611;SDS011;69094;48.154;11.536;2023-08-20T02:20:54;6.20;;;4.43;;
79611;SDS011;69094;48.154;11.536;2023-08-20T02:23:20;8.93;;;5.05;;
79611;SDS011;69094;48.154;11.536;2023-08-20T02:25:46;10.80;;;5.75;;
79611;SDS011;69094;48.154;11.536;2023-08-20T02:28:12;9.88;;;4.93;;
79611;SDS011;69094;48.154;11.536;2023-08-20T02:30:43;8.15;;;4.45;;
79611;SDS011;69094;48.154;11.536;2023-08-20T02:33:10;10.30;;;5.03;;
79611;SDS011;69094;48.154;11.536;2023-08-20T02:35:36;9.57;;;4.70;;
79611;SDS011;69094;48.154;11.536;2023-08-20T02:38:02;7.22;;;4.13;;
79611;SDS011;69094;48.154;11.536;2023-08-20T02:40:28;9.90;;;4.50;;
79611;SDS011;69094;48.154;11.536;2023-08-20T02:42:53;8.50;;;4.53;;
79611;SDS011;69094;48.154;11.536;2023-08-20T02:45:18;11.98;;;4.72;;
79611;SDS011;69094;48.154;11.536;2023-08-20T02:47:44;9.40;;;4.70;;
79611;SDS011;69094;48.154;11.536;2023-08-20T02:50:09;6.57;;;4.80;;
79611;SDS011;69094;48.154;11.536;2023-08-20T02:52:34;12.50;;;5.73;;
79611;SDS011;69094;48.154;11.536;2023-08-20T02:55:00;7.23;;;4.63;;
79611;SDS011;69094;48.154;11.536;2023-08-20T02:57:25;9.57;;;5.40;;
79611;SDS011;69094;48.154;11.536;2023-08-20T02:59:51;7.80;;;4.55;;
79611;SDS011;69094;48.154;11.536;2023-08-20T03:02:16;7.10;;;4.53;;
79611;SDS011;69094;48.154;11.536;2023-08-20T03:04:42;7.57;;;5.15;;
79611;SDS011;69094;48.154;11.536;2023-08-20T03:07:07;11.55;;;5.03;;
79611;SDS011;69094;48.154;11.536;2023-08-20T03:09:33;14.85;;;5.70;;
79611;SDS011;69094;48.154;11.536;2023-08-20T03:11:58;9.35;;;4.82;;
79611;SDS011;69094;48.154;11.536;2023-08-20T03:14:23;7.93;;;5.10;;
79611;SDS011;69094;48.154;11.536;2023-08-20T03:16:49;9.15;;;4.93;;
79611;SDS011;69094;48.154;11.536;2023-08-20T03:19:14;9.07;;;5.30;;
79611;SDS011;69094;48.154;11.536;2023-08-20T03:21:40;8.88;;;5.22;;
79611;SDS011;69094;48.154;11.536;2023-08-20T03:24:06;7.37;;;5.30;;
79611;SDS011;69094;48.154;11.536;2023-08-20T03:26:32;7.38;;;5.00;;
79611;SDS011;69094;48.154;11.536;2023-08-20T03:28:58;8.40;;;5.15;;
79611;SDS011;69094;48.154;11.536;2023-08-20T03:31:24;8.80;;;5.22;;
79611;SDS011;69094;48.154;11.536;2023-08-20T03:33:49;10.77;;;5.15;;
79611;SDS011;69094;48.154;11.536;2023-08-20T03:36:14;8.60;;;4.90;;
79611;SDS011;69094;48.154;11.536;2023-08-20T03:38:40;9.00;;;4.87;;
79611;SDS011;69094;48.154;11.536;2023-08-20T03:41:05;11.65;;;5.28;;
79611;SDS011;69094;48.154;11.536;2023-08-20T03:43:30;10.37;;;5.70;;
79611;SDS011;69094;48.154;11.536;2023-08-20T03:45:56;8.23;;;5.30;;
79611;SDS011;69094;48.154;11.536;2023-08-20T03:48:21;9.43;;;4.88;;
79611;SDS011;69094;48.154;11.536;2023-08-20T03:50:47;8.85;;;4.75;;
79611;SDS011;69094;48.154;11.536;2023-08-20T03:53:12;11.23;;;5.60;;
79611;SDS011;69094;48.154;11.536;2023-08-20T03:55:37;10.10;;;5.20;;
79611;SDS011;69094;48.154;11.536;2023-08-20T03:58:03;8.95;;;5.40;;
79611;SDS011;69094;48.154;11.536;2023-08-20T04:00:28;11.20;;;5.55;;
79611;SDS011;69094;48.154;11.536;2023-08-20T04:02:54;10.25;;;5.35;;
79611;SDS011;69094;48.154;11.536;2023-08-20T04:05:19;6.28;;;4.70;;
79611;SDS011;69094;48.154;11.536;2023-08-20T04:07:44;7.03;;;5.15;;
79611;SDS011;69094;48.154;11.536;2023-08-20T04:10:11;10.13;;;4.80;;
79611;SDS011;69094;48.154;11.536;2023-08-20T04:12:36;8.50;;;4.77;;
79611;SDS011;69094;48.154;11.536;2023-08-20T04:15:02;12.80;;;4.82;;
79611;SDS011;69094;48.154;11.536;2023-08-20T04:17:27;7.32;;;4.47;;
79611;SDS011;69094;48.154;11.536;2023-08-20T04:19:53;8.90;;;4.67;;
79611;SDS011;69094;48.154;11.536;2023-08-20T04:22:18;11.77;;;4.70;;
79611;SDS011;69094;48.154;11.536;2023-08-20T04:24:43;7.07;;;4.85;;
79611;SDS011;69094;48.154;11.536;2023-08-20T04:27:09;8.87;;;4.47;;
79611;SDS011;69094;48.154;11.536;2023-08-20T04:29:34;6.97;;;4.57;;
79611;SDS011;69094;48.154;11.536;2023-08-20T04:31:59;9.83;;;4.70;;
79611;SDS011;69094;48.154;11.536;2023-08-20T04:34:25;6.35;;;4.18;;
79611;SDS011;69094;48.154;11.536;2023-08-20T04:36:50;7.55;;;4.43;;
79611;SDS011;69094;48.154;11.536;2023-08-20T04:39:17;8.48;;;4.70;;
79611;SDS011;69094;48.154;11.536;2023-08-20T04:41:43;6.90;;;4.68;;
79611;SDS011;69094;48.154;11.536;2023-08-20T04:44:09;6.55;;;4.50;;
79611;SDS011;69094;48.154;11.536;2023-08-20T04:46:35;7.93;;;4.72;;
79611;SDS011;69094;48.154;11.536;2023-08-20T04:49:01;9.73;;;4.70;;
79611;SDS011;69094;48.154;11.536;2023-08-20T04:51:26;10.07;;;4.43;;
79611;SDS011;69094;48.154;11.536;2023-08-20T04:53:51;8.67;;;4.97;;
79611;SDS011;69094;48.154;11.536;2023-08-20T04:56:17;7.93;;;4.80;;
79611;SDS011;69094;48.154;11.536;2023-08-20T04:58:42;11.18;;;4.80;;
79611;SDS011;69094;48.154;11.536;2023-08-20T05:01:07;7.35;;;5.15;;
79611;SDS011;69094;48.154;11.536;2023-08-20T05:03:34;6.90;;;4.47;;
79611;SDS011;69094;48.154;11.536;2023-08-20T05:05:59;9.20;;;4.43;;
79611;SDS011;69094;48.154;11.536;2023-08-20T05:08:25;10.45;;;5.00;;
79611;SDS011;69094;48.154;11.536;2023-08-20T05:10:50;9.40;;;4.57;;
79611;SDS011;69094;48.154;11.536;2023-08-20T05:13:16;8.75;;;4.85;;
79611;SDS011;69094;48.154;11.536;2023-08-20T05:15:42;10.10;;;5.20;;
79611;SDS011;69094;48.154;11.536;2023-08-20T05:18:08;10.40;;;4.57;;
79611;SDS011;69094;48.154;11.536;2023-08-20T05:20:33;11.15;;;4.88;;
79611;SDS011;69094;48.154;11.536;2023-08-20T05:22:58;12.38;;;5.00;;
79611;SDS011;69094;48.154;11.536;2023-08-20T05:25:24;10.68;;;4.72;;
79611;SDS011;69094;48.154;11.536;2023-08-20T05:27:49;10.35;;;4.50;;
79611;SDS011;69094;48.154;11.536;2023-08-20T05:30:15;8.10;;;5.27;;
79611;SDS011;69094;48.154;11.536;2023-08-20T05:32:40;10.07;;;4.80;;
79611;SDS011;69094;48.154;11.536;2023-08-20T05:35:05;5.63;;;4.47;;
79611;SDS011;69094;48.154;11.536;2023-08-20T05:37:31;5.43;;;4.22;;
79611;SDS011;69094;48.154;11.536;2023-08-20T05:39:56;7.75;;;5.15;;
79611;SDS011;69094;48.154;11.536;2023-08-20T05:42:22;14.20;;;5.00;;
79611;SDS011;69094;48.154;11.536;2023-08-20T05:44:47;8.17;;;4.60;;
79611;SDS011;69094;48.154;11.536;2023-08-20T05:47:12;9.13;;;4.87;;
79611;SDS011;69094;48.154;11.536;2023-08-20T05:49:38;10.23;;;4.60;;
79611;SDS011;69094;48.154;11.536;2023-08-20T05:52:03;8.40;;;4.40;;
79611;SDS011;69094;48.154;11.536;2023-08-20T05:54:29;6.43;;;4.65;;
79611;SDS011;69094;48.154;11.536;2023-08-20T05:56:54;11.85;;;5.10;;
79611;SDS011;69094;48.154;11.536;2023-08-20T05:59:19;7.63;;;4.77;;
79611;SDS011;69094;48.154;11.536;2023-08-20T06:01:45;7.13;;;4.30;;
79611;SDS011;69094;48.154;11.536;2023-08-20T06:04:10;6.97;;;4.40;;
79611;SDS011;69094;48.154;11.536;2023-08-20T06:06:35;8.15;;;5.00;;
79611;SDS011;69094;48.154;11.536;2023-08-20T06:09:01;8.75;;;5.20;;
79611;SDS011;69094;48.154;11.536;2023-08-20T06:11:26;9.55;;;4.82;;
79611;SDS011;69094;48.154;11.536;2023-08-20T06:13:51;7.28;;;4.95;;
79611;SDS011;69094;48.154;11.536;2023-08-20T06:16:17;9.75;;;4.38;;
79611;SDS011;69094;48.154;11.536;2023-08-20T06:18:42;8.43;;;4.37;;
79611;SDS011;69094;48.154;11.536;2023-08-20T06:21:07;9.70;;;4.47;;
79611;SDS011;69094;48.154;11.536;2023-08-20T06:23:33;11.30;;;4.65;;
79611;SDS011;69094;48.154;11.536;2023-08-20T06:25:59;7.00;;;4.43;;
79611;SDS011;69094;48.154;11.536;2023-08-20T06:28:24;14.87;;;4.60;;
79611;SDS011;69094;48.154;11.536;2023-08-20T06:30:50;9.97;;;5.37;;
79611;SDS011;69094;48.154;11.536;2023-08-20T06:33:15;7.87;;;4.63;;
79611;SDS011;69094;48.154;11.536;2023-08-20T06:35:40;9.90;;;5.00;;
79611;SDS011;69094;48.154;11.536;2023-08-20T06:38:06;10.52;;;5.00;;
79611;SDS011;69094;48.154;11.536;2023-08-20T06:40:32;7.93;;;4.57;;
79611;SDS011;69094;48.154;11.536;2023-08-20T06:42:58;9.35;;;4.57;;
79611;SDS011;69094;48.154;11.536;2023-08-20T06:45:23;12.02;;;4.60;;
79611;SDS011;69094;48.154;11.536;2023-08-20T06:47:48;7.82;;;4.25;;
79611;SDS011;69094;48.154;11.536;2023-08-20T06:50:14;11.93;;;5.03;;
79611;SDS011;69094;48.154;11.536;2023-08-20T06:52:39;14.00;;;4.97;;
79611;SDS011;69094;48.154;11.536;2023-08-20T06:55:05;8.05;;;4.60;;
79611;SDS011;69094;48.154;11.536;2023-08-20T06:57:30;11.77;;;4.30;;
79611;SDS011;69094;48.154;11.536;2023-08-20T06:59:56;10.20;;;4.93;;
79611;SDS011;69094;48.154;11.536;2023-08-20T07:02:22;11.95;;;4.82;;
79611;SDS011;69094;48.154;11.536;2023-08-20T07:04:47;6.07;;;4.43;;
79611;SDS011;69094;48.154;11.536;2023-08-20T07:07:12;10.07;;;4.50;;
79611;SDS011;69094;48.154;11.536;2023-08-20T07:09:39;7.90;;;4.22;;
79611;SDS011;69094;48.154;11.536;2023-08-20T07:12:05;8.07;;;4.82;;
79611;SDS011;69094;48.154;11.536;2023-08-20T07:14:31;8.30;;;4.70;;
79611;SDS011;69094;48.154;11.536;2023-08-20T07:16:56;9.97;;;4.43;;
79611;SDS011;69094;48.154;11.536;2023-08-20T07:19:21;7.22;;;4.03;;
79611;SDS011;69094;48.154;11.536;2023-08-20T07:21:47;8.60;;;4.53;;
79611;SDS011;69094;48.154;11.536;2023-08-20T07:24:12;8.20;;;4.35;;
79611;SDS011;69094;48.154;11.536;2023-08-20T07:26:38;12.93;;;4.90;;
79611;SDS011;69094;48.154;11.536;2023-08-20T07:29:03;6.85;;;4.05;;
79611;SDS011;69094;48.154;11.536;2023-08-20T07:31:30;6.53;;;4.13;;
79611;SDS011;69094;48.154;11.536;2023-08-20T07:33:57;7.05;;;4.47;;
79611;SDS011;69094;48.154;11.536;2023-08-20T07:36:25;12.38;;;4.50;;
79611;SDS011;69094;48.154;11.536;2023-08-20T07:38:51;8.27;;;4.72;;
79611;SDS011;69094;48.154;11.536;2023-08-20T07:41:18;7.68;;;4.40;;
79611;SDS011;69094;48.154;11.536;2023-08-20T07:43:47;7.00;;;4.00;;
79611;SDS011;69094;48.154;11.536;2023-08-20T07:46:14;6.93;;;3.97;;
79611;SDS011;69094;48.154;11.536;2023-08-20T07:48:40;6.57;;;4.15;;
79611;SDS011;69094;48.154;11.536;2023-08-20T07:51:06;8.45;;;4.15;;
79611;SDS011;69094;48.154;11.536;2023-08-20T07:53:31;8.27;;;4.35;;
79611;SDS011;69094;48.154;11.536;2023-08-20T07:55:58;7.10;;;4.43;;
79611;SDS011;69094;48.154;11.536;2023-08-20T07:58:25;8.60;;;4.85;;
79611;SDS011;69094;48.154;11.536;2023-08-20T08:00:50;8.38;;;4.60;;
79611;SDS011;69094;48.154;11.536;2023-08-20T08:03:15;8.63;;;5.03;;
79611;SDS011;69094;48.154;11.536;2023-08-20T08:05:45;6.00;;;4.30;;
79611;SDS011;69094;48.154;11.536;2023-08-20T08:08:11;8.90;;;4.45;;
79611;SDS011;69094;48.154;11.536;2023-08-20T08:10:37;7.28;;;4.40;;
79611;SDS011;69094;48.154;11.536;2023-08-20T08:13:03;7.82;;;4.82;;
79611;SDS011;69094;48.154;11.536;2023-08-20T08:15:28;9.07;;;4.53;;
79611;SDS011;69094;48.154;11.536;2023-08-20T08:17:53;7.53;;;4.57;;
79611;SDS011;69094;48.154;11.536;2023-08-20T08:20:19;8.43;;;4.83;;
79611;SDS011;69094;48.154;11.536;2023-08-20T08:22:44;7.38;;;4.40;;
79611;SDS011;69094;48.154;11.536;2023-08-20T08:25:09;11.47;;;4.30;;
79611;SDS011;69094;48.154;11.536;2023-08-20T08:27:35;5.25;;;3.92;;
79611;SDS011;69094;48.154;11.536;2023-08-20T08:30:00;11.10;;;4.30;;
79611;SDS011;69094;48.154;11.536;2023-08-20T08:32:25;7.37;;;4.80;;
79611;SDS011;69094;48.154;11.536;2023-08-20T08:34:51;8.10;;;4.93;;
79611;SDS011;69094;48.154;11.536;2023-08-20T08:37:16;5.87;;;4.03;;
79611;SDS011;69094;48.154;11.536;2023-08-20T08:39:42;9.50;;;3.90;;
79611;SDS011;69094;48.154;11.536;2023-08-20T08:42:07;7.85;;;4.05;;
79611;SDS011;69094;48.154;11.536;2023-08-20T08:44:32;5.90;;;3.88;;
79611;SDS011;69094;48.154;11.536;2023-08-20T08:46:59;10.07;;;4.40;;
79611;SDS011;69094;48.154;11.536;2023-08-20T08:49:25;7.82;;;4.32;;
79611;SDS011;69094;48.154;11.536;2023-08-20T08:51:51;6.63;;;3.78;;
79611;SDS011;69094;48.154;11.536;2023-08-20T08:54:19;4.45;;;4.03;;
79611;SDS011;69094;48.154;11.536;2023-08-20T08:56:45;8.43;;;4.22;;
79611;SDS011;69094;48.154;11.536;2023-08-20T08:59:10;11.98;;;4.80;;
79611;SDS011;69094;48.154;11.536;2023-08-20T09:01:39;6.30;;;3.78;;
79611;SDS011;69094;48.154;11.536;2023-08-20T09:04:06;7.13;;;3.92;;
79611;SDS011;69094;48.154;11.536;2023-08-20T09:09:19;5.07;;;3.22;;
79611;SDS011;69094;48.154;11.536;2023-08-20T09:11:48;6.50;;;3.90;;
79611;SDS011;69094;48.154;11.536;2023-08-20T09:14:23;5.53;;;3.72;;
79611;SDS011;69094;48.154;11.536;2023-08-20T09:16:55;9.02;;;3.95;;
79611;SDS011;69094;48.154;11.536;2023-08-20T09:19:31;6.65;;;3.72;;
79611;SDS011;69094;48.154;11.536;2023-08-20T09:22:02;7.05;;;4.68;;
79611;SDS011;69094;48.154;11.536;2023-08-20T09:25:01;6.88;;;3.90;;
79611;SDS011;69094;48.154;11.536;2023-08-20T09:27:21;5.28;;;3.40;;
79611;SDS011;69094;48.154;11.536;2023-08-20T09:29:47;7.72;;;3.88;;
79611;SDS011;69094;48.154;11.536;2023-08-20T09:32:18;7.90;;;4.07;;
79611;SDS011;69094;48.154;11.536;2023-08-20T09:34:44;6.65;;;3.70;;
79611;SDS011;69094;48.154;11.536;2023-08-20T09:37:11;6.70;;;4.32;;
79611;SDS011;69094;48.154;11.536;2023-08-20T09:39:38;6.22;;;4.38;;
79611;SDS011;69094;48.154;11.536;2023-08-20T09:42:04;5.30;;;3.97;;
79611;SDS011;69094;48.154;11.536;2023-08-20T09:44:34;6.97;;;3.97;;
79611;SDS011;69094;48.154;11.536;2023-08-20T09:47:07;5.28;;;3.80;;
79611;SDS011;69094;48.154;11.536;2023-08-20T09:49:38;6.68;;;4.20;;
79611;SDS011;69094;48.154;11.536;2023-08-20T09:52:05;5.65;;;3.70;;
79611;SDS011;69094;48.154;11.536;2023-08-20T09:54:36;7.68;;;3.80;;
79611;SDS011;69094;48.154;11.536;2023-08-20T09:57:02;7.32;;;4.13;;
79611;SDS011;69094;48.154;11.536;2023-08-20T09:59:37;6.38;;;3.83;;
79611;SDS011;69094;48.154;11.536;2023-08-20T10:02:04;7.95;;;3.83;;
79611;SDS011;69094;48.154;11.536;2023-08-20T10:04:29;6.43;;;3.75;;
79611;SDS011;69094;48.154;11.536;2023-08-20T10:06:57;8.07;;;3.58;;
79611;SDS011;69094;48.154;11.536;2023-08-20T10:09:24;5.45;;;3.42;;
79611;SDS011;69094;48.154;11.536;2023-08-20T10:11:49;5.88;;;3.58;;
79611;SDS011;69094;48.154;11.536;2023-08-20T10:14:14;6.43;;;3.40;;
79611;SDS011;69094;48.154;11.536;2023-08-20T10:16:40;4.20;;;3.20;;
79611;SDS011;69094;48.154;11.536;2023-08-20T10:19:05;6.25;;;3.55;;
79611;SDS011;69094;48.154;11.536;2023-08-20T10:21:31;4.35;;;3.40;;
79611;SDS011;69094;48.154;11.536;2023-08-20T10:24:02;5.28;;;3.60;;
79611;SDS011;69094;48.154;11.536;2023-08-20T10:26:33;5.18;;;3.42;;
79611;SDS011;69094;48.154;11.536;2023-08-20T10:32:06;5.88;;;3.60;;
79611;SDS011;69094;48.154;11.536;2023-08-20T10:34:36;6.97;;;3.92;;
79611;SDS011;69094;48.154;11.536;2023-08-20T10:37:08;7.32;;;3.60;;
79611;SDS011;69094;48.154;11.536;2023-08-20T10:39:53;5.60;;;3.65;;
79611;SDS011;69094;48.154;11.536;2023-08-20T10:47:34;6.40;;;4.18;;
79611;SDS011;69094;48.154;11.536;2023-08-20T10:50:09;8.05;;;4.03;;
79611;SDS011;69094;48.154;11.536;2023-08-20T10:52:54;5.38;;;4.35;;
79611;SDS011;69094;48.154;11.536;2023-08-20T10:55:24;7.82;;;4.07;;
79611;SDS011;69094;48.154;11.536;2023-08-20T10:57:56;4.47;;;3.50;;
79611;SDS011;69094;48.154;11.536;2023-08-20T11:00:22;7.93;;;3.80;;
79611;SDS011;69094;48.154;11.536;2023-08-20T11:02:47;6.20;;;4.00;;
79611;SDS011;69094;48.154;11.536;2023-08-20T11:05:17;4.65;;;3.72;;
79611;SDS011;69094;48.154;11.536;2023-08-20T11:07:47;4.45;;;3.53;;
79611;SDS011;69094;48.154;11.536;2023-08-20T11:10:14;5.15;;;3.97;;
79611;SDS011;69094;48.154;11.536;2023-08-20T11:12:41;5.80;;;4.03;;
79611;SDS011;69094;48.154;11.536;2023-08-20T11:15:08;4.65;;;3.95;;
79611;SDS011;69094;48.154;11.536;2023-08-20T11:17:55;6.93;;;3.70;;
79611;SDS011;69094;48.154;11.536;2023-08-20T11:20:21;5.10;;;3.78;;
79611;SDS011;69094;48.154;11.536;2023-08-20T11:22:47;6.32;;;3.72;;
79611;SDS011;69094;48.154;11.536;2023-08-20T11:25:12;5.47;;;4.03;;
79611;SDS011;69094;48.154;11.536;2023-08-20T11:27:44;4.25;;;3.33;;
79611;SDS011;69094;48.154;11.536;2023-08-20T11:30:09;3.95;;;3.40;;
79611;SDS011;69094;48.154;11.536;2023-08-20T11:32:38;9.77;;;3.53;;
79611;SDS011;69094;48.154;11.536;2023-08-20T11:35:04;6.38;;;3.58;;
79611;SDS011;69094;48.154;11.536;2023-08-20T11:37:32;3.63;;;3.30;;
79611;SDS011;69094;48.154;11.536;2023-08-20T11:39:57;4.80;;;3.30;;
79611;SDS011;69094;48.154;11.536;2023-08-20T11:42:23;4.47;;;3.25;;
79611;SDS011;69094;48.154;11.536;2023-08-20T11:44:48;11.27;;;5.75;;
79611;SDS011;69094;48.154;11.536;2023-08-20T11:47:17;8.98;;;3.53;;
79611;SDS011;69094;48.154;11.536;2023-08-20T11:49:44;3.72;;;2.97;;
79611;SDS011;69094;48.154;11.536;2023-08-20T11:52:09;6.40;;;3.58;;
79611;SDS011;69094;48.154;11.536;2023-08-20T11:54:35;6.65;;;4.13;;
79611;SDS011;69094;48.154;11.536;2023-08-20T11:57:02;6.00;;;3.63;;
79611;SDS011;69094;48.154;11.536;2023-08-20T11:59:28;4.75;;;3.08;;
79611;SDS011;69094;48.154;11.536;2023-08-20T12:01:57;6.40;;;3.20;;
79611;SDS011;69094;48.154;11.536;2023-08-20T12:04:31;6.35;;;3.50;;
79611;SDS011;69094;48.154;11.536;2023-08-20T12:07:10;4.50;;;3.15;;
79611;SDS011;69094;48.154;11.536;2023-08-20T12:09:39;5.38;;;3.30;;
79611;SDS011;69094;48.154;11.536;2023-08-20T12:12:05;5.00;;;2.92;;
79611;SDS011;69094;48.154;11.536;2023-08-20T12:14:32;5.55;;;3.28;;
79611;SDS011;69094;48.154;11.536;2023-08-20T12:16:57;4.37;;;3.00;;
79611;SDS011;69094;48.154;11.536;2023-08-20T12:19:23;6.38;;;3.53;;
79611;SDS011;69094;48.154;11.536;2023-08-20T12:21:49;6.72;;;3.28;;
79611;SDS011;69094;48.154;11.536;2023-08-20T12:24:15;9.05;;;3.50;;
79611;SDS011;69094;48.154;11.536;2023-08-20T12:26:41;5.22;;;3.17;;
79611;SDS011;69094;48.154;11.536;2023-08-20T12:29:07;8.75;;;3.63;;
79611;SDS011;69094;48.154;11.536;2023-08-20T12:31:33;6.32;;;3.72;;
79611;SDS011;69094;48.154;11.536;2023-08-20T12:33:59;3.65;;;3.03;;
79611;SDS011;69094;48.154;11.536;2023-08-20T12:36:25;7.25;;;3.40;;
79611;SDS011;69094;48.154;11.536;2023-08-20T12:38:50;7.22;;;3.80;;
79611;SDS011;69094;48.154;11.536;2023-08-20T12:41:15;9.60;;;3.20;;
79611;SDS011;69094;48.154;11.536;2023-08-20T12:43:41;7.78;;;3.40;;
79611;SDS011;69094;48.154;11.536;2023-08-20T12:46:06;5.15;;;3.03;;
79611;SDS011;69094;48.154;11.536;2023-08-20T12:48:32;4.93;;;3.22;;
79611;SDS011;69094;48.154;11.536;2023-08-20T12:50:57;6.10;;;3.15;;
79611;SDS011;69094;48.154;11.536;2023-08-20T12:53:23;5.90;;;3.40;;
79611;SDS011;69094;48.154;11.536;2023-08-20T12:55:48;6.70;;;3.75;;
79611;SDS011;69094;48.154;11.536;2023-08-20T12:58:14;7.63;;;3.40;;
79611;SDS011;69094;48.154;11.536;2023-08-20T13:00:39;7.97;;;3.77;;
79611;SDS011;69094;48.154;11.536;2023-08-20T13:03:05;6.95;;;3.83;;
79611;SDS011;69094;48.154;11.536;2023-08-20T13:05:31;5.00;;;3.60;;
79611;SDS011;69094;48.154;11.536;2023-08-20T13:07:56;6.82;;;3.47;;
79611;SDS011;69094;48.154;11.536;2023-08-20T13:10:22;4.80;;;3.42;;
79611;SDS011;69094;48.154;11.536;2023-08-20T13:12:50;8.48;;;3.78;;
79611;SDS011;69094;48.154;11.536;2023-08-20T13:17:45;7.75;;;3.70;;
79611;SDS011;69094;48.154;11.536;2023-08-20T13:20:12;4.75;;;3.60;;
79611;SDS011;69094;48.154;11.536;2023-08-20T13:22:37;4.30;;;3.85;;
79611;SDS011;69094;48.154;11.536;2023-08-20T13:25:03;5.72;;;3.85;;
79611;SDS011;69094;48.154;11.536;2023-08-20T13:27:29;5.63;;;3.80;;
79611;SDS011;69094;48.154;11.536;2023-08-20T13:29:55;5.10;;;4.15;;
79611;SDS011;69094;48.154;11.536;2023-08-20T13:32:20;9.88;;;3.78;;
79611;SDS011;69094;48.154;11.536;2023-08-20T13:34:52;5.85;;;3.83;;
79611;SDS011;69094;48.154;11.536;2023-08-20T13:37:17;4.72;;;3.42;;
79611;SDS011;69094;48.154;11.536;2023-08-20T13:39:43;9.03;;;4.07;;
79611;SDS011;69094;48.154;11.536;2023-08-20T13:42:08;4.85;;;4.00;;
79611;SDS011;69094;48.154;11.536;2023-08-20T13:44:34;7.47;;;4.03;;
79611;SDS011;69094;48.154;11.536;2023-08-20T13:46:59;9.53;;;3.90;;
79611;SDS011;69094;48.154;11.536;2023-08-20T13:49:24;5.88;;;3.72;;
79611;SDS011;69094;48.154;11.536;2023-08-20T13:51:50;6.40;;;3.50;;
79611;SDS011;69094;48.154;11.536;2023-08-20T13:54:15;7.45;;;4.15;;
79611;SDS011;69094;48.154;11.536;2023-08-20T13:56:41;6.17;;;3.50;;
79611;SDS011;69094;48.154;11.536;2023-08-20T13:59:08;6.43;;;3.58;;
79611;SDS011;69094;48.154;11.536;2023-08-20T14:01:34;5.95;;;4.28;;
79611;SDS011;69094;48.154;11.536;2023-08-20T14:04:00;4.78;;;3.38;;
79611;SDS011;69094;48.154;11.536;2023-08-20T14:06:25;10.50;;;4.60;;
79611;SDS011;69094;48.154;11.536;2023-08-20T14:08:50;7.20;;;4.40;;
79611;SDS011;69094;48.154;11.536;2023-08-20T14:11:16;6.78;;;3.95;;
79611;SDS011;69094;48.154;11.536;2023-08-20T14:13:41;6.55;;;3.80;;
79611;SDS011;69094;48.154;11.536;2023-08-20T14:16:07;7.32;;;4.28;;
79611;SDS011;69094;48.154;11.536;2023-08-20T14:18:33;11.65;;;3.95;;
79611;SDS011;69094;48.154;11.536;2023-08-20T14:20:58;5.90;;;4.22;;
79611;SDS011;69094;48.154;11.536;2023-08-20T14:23:24;6.82;;;3.90;;
79611;SDS011;69094;48.154;11.536;2023-08-20T14:25:49;8.38;;;4.22;;
79611;SDS011;69094;48.154;11.536;2023-08-20T14:28:15;4.88;;;3.90;;
79611;SDS011;69094;48.154;11.536;2023-08-20T14:30:40;4.97;;;3.67;;
79611;SDS011;69094;48.154;11.536;2023-08-20T14:33:06;6.00;;;4.18;;
79611;SDS011;69094;48.154;11.536;2023-08-20T14:35:31;4.85;;;3.60;;
79611;SDS011;69094;48.154;11.536;2023-08-20T14:37:57;6.28;;;4.13;;
79611;SDS011;69094;48.154;11.536;2023-08-20T14:40:23;5.70;;;3.90;;
79611;SDS011;69094;48.154;11.536;2023-08-20T14:42:49;4.45;;;3.80;;
79611;SDS011;69094;48.154;11.536;2023-08-20T14:45:14;6.25;;;4.70;;
79611;SDS011;69094;48.154;11.536;2023-08-20T14:47:40;6.00;;;4.80;;
79611;SDS011;69094;48.154;11.536;2023-08-20T14:50:05;5.87;;;4.40;;